sensor_id;sensor_type;location;lat;lon;timestamp;pressure;altitude;pressure_sealevel;temperature;humidity
33422;BME280;19763;55.798;37.782;2023-12-20T00:02:21;39393.88;;;-145.63;62.50
33422;BME280;19763;55.798;37.782;2023-12-20T00:04:47;39384.09;;;-145.63;62.30
33422;BME280;19763;55.798;37.782;2023-12-20T00:07:12;39391.91;;;-145.63;62.52
33422;BME280;19763;55.798;37.782;2023-12-20T00:09:38;39376.28;;;-145.63;62.50
33422;BME280;19763;55.798;37.782;2023-12-20T00:12:04;39419.31;;;-145.63;62.60
33422;BME280;19763;55.798;37.782;2023-12-20T00:14:30;39380.19;;;-145.63;62.98
33422;BME280;19763;55.798;37.782;2023-12-20T00:16:55;39376.28;;;-145.63;62.75
33422;BME280;19763;55.798;37.782;2023-12-20T00:19:21;39386.06;;;-145.63;62.84
33422;BME280;19763;55.798;37.782;2023-12-20T00:21:47;39378.22;;;-145.63;62.83
33422;BME280;19763;55.798;37.782;2023-12-20T00:24:12;39395.84;;;-145.63;62.81
33422;BME280;19763;55.798;37.782;2023-12-20T00:26:38;39391.91;;;-145.63;62.30
33422;BME280;19763;55.798;37.782;2023-12-20T00:29:04;39395.84;;;-145.63;62.37
33422;BME280;19763;55.798;37.782;2023-12-20T00:31:29;39417.34;;;-145.63;62.62
33422;BME280;19763;55.798;37.782;2023-12-20T00:33:55;39419.31;;;-145.63;61.92
33422;BME280;19763;55.798;37.782;2023-12-20T00:36:21;39407.56;;;-145.63;61.60
33422;BME280;19763;55.798;37.782;2023-12-20T00:38:47;39409.53;;;-145.63;61.70
33422;BME280;19763;55.798;37.782;2023-12-20T00:41:13;39378.22;;;-145.63;61.46
33422;BME280;19763;55.798;37.782;2023-12-20T00:43:39;39376.28;;;-145.63;61.30
33422;BME280;19763;55.798;37.782;2023-12-20T00:46:04;39388.00;;;-145.63;60.87
33422;BME280;19763;55.798;37.782;2023-12-20T00:48:30;39386.06;;;-145.63;60.74
33422;BME280;19763;55.798;37.782;2023-12-20T00:50:57;39397.78;;;-145.63;60.74
33422;BME280;19763;55.798;37.782;2023-12-20T00:53:23;39399.75;;;-145.63;60.88
33422;BME280;19763;55.798;37.782;2023-12-20T00:55:48;39440.81;;;-145.63;60.94
33422;BME280;19763;55.798;37.782;2023-12-20T00:58:15;39378.22;;;-145.63;61.45
33422;BME280;19763;55.798;37.782;2023-12-20T01:00:41;39397.78;;;-145.63;61.11
33422;BME280;19763;55.798;37.782;2023-12-20T01:03:09;39372.34;;;-145.63;61.09
33422;BME280;19763;55.798;37.782;2023-12-20T01:05:35;39397.78;;;-145.63;61.62
33422;BME280;19763;55.798;37.782;2023-12-20T01:08:01;39423.22;;;-145.63;61.45
33422;BME280;19763;55.798;37.782;2023-12-20T01:10:28;39364.53;;;-145.63;61.64
33422;BME280;19763;55.798;37.782;2023-12-20T01:12:55;39411.47;;;-145.63;61.77
33422;BME280;19763;55.798;37.782;2023-12-20T01:15:20;39395.84;;;-145.63;61.71
33422;BME280;19763;55.798;37.782;2023-12-20T01:17:46;39403.66;;;-145.63;61.68
33422;BME280;19763;55.798;37.782;2023-12-20T01:20:12;39389.97;;;-145.63;61.98
33422;BME280;19763;55.798;37.782;2023-12-20T01:22:38;39413.44;;;-145.63;61.85
33422;BME280;19763;55.798;37.782;2023-12-20T01:25:04;39388.00;;;-145.63;61.25
33422;BME280;19763;55.798;37.782;2023-12-20T01:27:30;39411.47;;;-145.63;61.29
33422;BME280;19763;55.798;37.782;2023-12-20T01:29:56;39411.47;;;-145.63;61.14
33422;BME280;19763;55.798;37.782;2023-12-20T01:32:22;39382.13;;;-145.63;61.17
33422;BME280;19763;55.798;37.782;2023-12-20T01:34:48;39425.16;;;-145.63;60.98
33422;BME280;19763;55.798;37.782;2023-12-20T01:37:14;39380.19;;;-145.63;61.05
33422;BME280;19763;55.798;37.782;2023-12-20T01:39:40;39395.84;;;-145.63;60.93
33422;BME280;19763;55.798;37.782;2023-12-20T01:42:05;39389.97;;;-145.63;61.02
33422;BME280;19763;55.798;37.782;2023-12-20T01:44:31;39343.03;;;-145.63;60.83
33422;BME280;19763;55.798;37.782;2023-12-20T01:46:56;39405.59;;;-145.63;61.01
33422;BME280;19763;55.798;37.782;2023-12-20T01:49:23;39399.75;;;-145.63;61.21
33422;BME280;19763;55.798;37.782;2023-12-20T01:51:50;39409.53;;;-145.63;60.91
33422;BME280;19763;55.798;37.782;2023-12-20T01:54:16;39399.75;;;-145.63;60.77
33422;BME280;19763;55.798;37.782;2023-12-20T01:56:42;39391.91;;;-145.63;60.72
33422;BME280;19763;55.798;37.782;2023-12-20T01:59:08;39411.47;;;-145.63;61.00
33422;BME280;19763;55.798;37.782;2023-12-20T02:01:35;39415.38;;;-145.63;60.74
33422;BME280;19763;55.798;37.782;2023-12-20T02:04:01;39403.66;;;-145.63;60.91
33422;BME280;19763;55.798;37.782;2023-12-20T02:06:30;39409.53;;;-145.63;61.04
33422;BME280;19763;55.798;37.782;2023-12-20T02:08:59;39423.22;;;-145.63;60.59
33422;BME280;19763;55.798;37.782;2023-12-20T02:11:25;39417.34;;;-145.63;60.25
33422;BME280;19763;55.798;37.782;2023-12-20T02:13:53;39438.84;;;-145.63;60.57
33422;BME280;19763;55.798;37.782;2023-12-20T02:16:19;39368.44;;;-145.63;59.87
33422;BME280;19763;55.798;37.782;2023-12-20T02:18:45;39425.16;;;-145.63;60.19
33422;BME280;19763;55.798;37.782;2023-12-20T02:21:10;39411.47;;;-145.63;60.04
33422;BME280;19763;55.798;37.782;2023-12-20T02:23:36;39419.31;;;-145.63;59.88
33422;BME280;19763;55.798;37.782;2023-12-20T02:26:03;39391.91;;;-145.63;59.99
33422;BME280;19763;55.798;37.782;2023-12-20T02:28:30;39431.03;;;-145.63;60.10
33422;BME280;19763;55.798;37.782;2023-12-20T02:30:56;39542.53;;;-145.63;59.88
33422;BME280;19763;55.798;37.782;2023-12-20T02:33:22;39401.69;;;-145.63;59.93
33422;BME280;19763;55.798;37.782;2023-12-20T02:35:48;39407.56;;;-145.63;59.67
33422;BME280;19763;55.798;37.782;2023-12-20T02:38:14;39405.59;;;-145.63;59.65
33422;BME280;19763;55.798;37.782;2023-12-20T02:40:39;39405.59;;;-145.63;59.59
33422;BME280;19763;55.798;37.782;2023-12-20T02:43:05;39389.97;;;-145.63;59.57
33422;BME280;19763;55.798;37.782;2023-12-20T02:45:31;39399.75;;;-145.63;59.68
33422;BME280;19763;55.798;37.782;2023-12-20T02:47:56;39427.13;;;-145.63;59.65
33422;BME280;19763;55.798;37.782;2023-12-20T02:50:22;39397.78;;;-145.63;59.96
33422;BME280;19763;55.798;37.782;2023-12-20T02:52:48;39407.56;;;-145.63;59.57
33422;BME280;19763;55.798;37.782;2023-12-20T02:55:14;39376.28;;;-145.63;59.61
33422;BME280;19763;55.798;37.782;2023-12-20T02:57:39;39386.06;;;-145.63;59.99
33422;BME280;19763;55.798;37.782;2023-12-20T03:00:09;39415.38;;;-145.63;59.76
33422;BME280;19763;55.798;37.782;2023-12-20T03:02:36;39423.22;;;-145.63;59.83
33422;BME280;19763;55.798;37.782;2023-12-20T03:05:02;39393.88;;;-145.63;59.61
33422;BME280;19763;55.798;37.782;2023-12-20T03:07:30;39380.19;;;-145.63;59.53
33422;BME280;19763;55.798;37.782;2023-12-20T03:09:56;39384.09;;;-145.63;59.58
33422;BME280;19763;55.798;37.782;2023-12-20T03:12:21;39403.66;;;-145.63;59.05
33422;BME280;19763;55.798;37.782;2023-12-20T03:14:48;39419.31;;;-145.63;59.74
33422;BME280;19763;55.798;37.782;2023-12-20T03:17:14;39407.56;;;-145.63;59.21
33422;BME280;19763;55.798;37.782;2023-12-20T03:19:39;39395.84;;;-145.63;59.57
33422;BME280;19763;55.798;37.782;2023-12-20T03:22:05;39376.28;;;-145.63;59.35
33422;BME280;19763;55.798;37.782;2023-12-20T03:24:30;39389.97;;;-145.63;60.05
33422;BME280;19763;55.798;37.782;2023-12-20T03:26:56;39401.69;;;-145.63;59.66
33422;BME280;19763;55.798;37.782;2023-12-20T03:29:22;39419.31;;;-145.63;60.25
33422;BME280;19763;55.798;37.782;2023-12-20T03:31:47;39421.25;;;-145.63;60.77
33422;BME280;19763;55.798;37.782;2023-12-20T03:34:13;39376.28;;;-145.63;60.35
33422;BME280;19763;55.798;37.782;2023-12-20T03:36:40;39393.88;;;-145.63;60.68
33422;BME280;19763;55.798;37.782;2023-12-20T03:39:05;39415.38;;;-145.63;61.16
33422;BME280;19763;55.798;37.782;2023-12-20T03:41:31;39399.75;;;-145.63;61.58
33422;BME280;19763;55.798;37.782;2023-12-20T03:43:57;39427.13;;;-145.63;61.40
33422;BME280;19763;55.798;37.782;2023-12-20T03:46:22;39403.66;;;-145.63;61.77
33422;BME280;19763;55.798;37.782;2023-12-20T03:48:48;39380.19;;;-145.63;61.71
33422;BME280;19763;55.798;37.782;2023-12-20T03:51:14;39417.34;;;-145.63;62.37
33422;BME280;19763;55.798;37.782;2023-12-20T03:53:39;39411.47;;;-145.63;62.34
33422;BME280;19763;55.798;37.782;2023-12-20T03:56:06;39436.91;;;-145.63;62.38
33422;BME280;19763;55.798;37.782;2023-12-20T03:58:32;39427.13;;;-145.63;63.30
33422;BME280;19763;55.798;37.782;2023-12-20T04:00:57;39384.09;;;-145.63;62.65
33422;BME280;19763;55.798;37.782;2023-12-20T04:03:23;39380.19;;;-145.63;62.48
33422;BME280;19763;55.798;37.782;2023-12-20T04:05:48;39378.22;;;-145.63;62.42
33422;BME280;19763;55.798;37.782;2023-12-20T04:08:14;39425.16;;;-145.63;62.99
33422;BME280;19763;55.798;37.782;2023-12-20T04:10:40;39382.13;;;-145.63;62.62
33422;BME280;19763;55.798;37.782;2023-12-20T04:13:06;39360.63;;;-145.63;62.41
33422;BME280;19763;55.798;37.782;2023-12-20T04:15:31;39395.84;;;-145.63;62.68
33422;BME280;19763;55.798;37.782;2023-12-20T04:17:57;39391.91;;;-145.63;62.22
33422;BME280;19763;55.798;37.782;2023-12-20T04:20:23;39407.56;;;-145.63;62.26
33422;BME280;19763;55.798;37.782;2023-12-20T04:22:48;39403.66;;;-145.63;62.01
33422;BME280;19763;55.798;37.782;2023-12-20T04:25:14;39411.47;;;-145.63;62.02
33422;BME280;19763;55.798;37.782;2023-12-20T04:27:40;39399.75;;;-145.63;62.13
33422;BME280;19763;55.798;37.782;2023-12-20T04:30:06;39393.88;;;-145.63;62.11
33422;BME280;19763;55.798;37.782;2023-12-20T04:32:33;39517.09;;;-145.63;61.90
33422;BME280;19763;55.798;37.782;2023-12-20T04:34:58;39403.66;;;-145.63;62.21
33422;BME280;19763;55.798;37.782;2023-12-20T04:37:24;39376.28;;;-145.63;62.81
33422;BME280;19763;55.798;37.782;2023-12-20T04:39:50;39409.53;;;-145.63;62.17
33422;BME280;19763;55.798;37.782;2023-12-20T04:42:16;39393.88;;;-145.63;61.85
33422;BME280;19763;55.798;37.782;2023-12-20T04:44:42;39419.31;;;-145.63;62.27
33422;BME280;19763;55.798;37.782;2023-12-20T04:47:09;39386.06;;;-145.63;62.07
33422;BME280;19763;55.798;37.782;2023-12-20T04:49:35;39362.59;;;-145.63;62.11
33422;BME280;19763;55.798;37.782;2023-12-20T04:52:00;39384.09;;;-145.63;62.08
33422;BME280;19763;55.798;37.782;2023-12-20T04:54:26;39417.34;;;-145.63;61.48
33422;BME280;19763;55.798;37.782;2023-12-20T04:56:52;39407.56;;;-145.63;61.76
33422;BME280;19763;55.798;37.782;2023-12-20T04:59:17;39395.84;;;-145.63;61.41
33422;BME280;19763;55.798;37.782;2023-12-20T05:01:43;39401.69;;;-145.63;61.13
33422;BME280;19763;55.798;37.782;2023-12-20T05:04:09;39380.19;;;-145.63;61.11
33422;BME280;19763;55.798;37.782;2023-12-20T05:06:34;39401.69;;;-145.63;60.92
33422;BME280;19763;55.798;37.782;2023-12-20T05:09:00;39403.66;;;-145.63;61.17
33422;BME280;19763;55.798;37.782;2023-12-20T05:11:26;39401.69;;;-145.63;61.17
33422;BME280;19763;55.798;37.782;2023-12-20T05:13:51;39401.69;;;-145.63;60.87
33422;BME280;19763;55.798;37.782;2023-12-20T05:16:17;39407.56;;;-145.63;60.95
33422;BME280;19763;55.798;37.782;2023-12-20T05:18:48;38961.66;;;-145.63;60.95
33422;BME280;19763;55.798;37.782;2023-12-20T05:21:15;39415.38;;;-145.63;60.58
33422;BME280;19763;55.798;37.782;2023-12-20T05:23:40;39415.38;;;-145.63;60.50
33422;BME280;19763;55.798;37.782;2023-12-20T05:26:06;39395.84;;;-145.63;60.46
33422;BME280;19763;55.798;37.782;2023-12-20T05:28:32;39388.00;;;-145.63;60.53
33422;BME280;19763;55.798;37.782;2023-12-20T05:30:58;39395.84;;;-145.63;60.61
33422;BME280;19763;55.798;37.782;2023-12-20T05:33:24;39403.66;;;-145.63;60.32
33422;BME280;19763;55.798;37.782;2023-12-20T05:35:50;39389.97;;;-145.63;60.52
33422;BME280;19763;55.798;37.782;2023-12-20T05:38:15;39403.66;;;-145.63;60.48
33422;BME280;19763;55.798;37.782;2023-12-20T05:40:42;39415.38;;;-145.63;60.18
33422;BME280;19763;55.798;37.782;2023-12-20T05:43:07;39425.16;;;-145.63;60.21
33422;BME280;19763;55.798;37.782;2023-12-20T05:45:33;39397.78;;;-145.63;60.19
33422;BME280;19763;55.798;37.782;2023-12-20T05:47:59;39423.22;;;-145.63;60.10
33422;BME280;19763;55.798;37.782;2023-12-20T05:50:25;39425.16;;;-145.63;60.16
33422;BME280;19763;55.798;37.782;2023-12-20T05:52:51;39384.09;;;-145.63;60.38
33422;BME280;19763;55.798;37.782;2023-12-20T05:55:16;39407.56;;;-145.63;60.30
33422;BME280;19763;55.798;37.782;2023-12-20T05:57:42;39388.00;;;-145.63;59.88
33422;BME280;19763;55.798;37.782;2023-12-20T06:00:09;39397.78;;;-145.63;59.96
33422;BME280;19763;55.798;37.782;2023-12-20T06:02:35;39423.22;;;-145.63;60.04
33422;BME280;19763;55.798;37.782;2023-12-20T06:05:04;39419.31;;;-145.63;59.51
33422;BME280;19763;55.798;37.782;2023-12-20T06:07:30;39407.56;;;-145.63;58.99
33422;BME280;19763;55.798;37.782;2023-12-20T06:09:56;39429.06;;;-145.63;58.85
33422;BME280;19763;55.798;37.782;2023-12-20T06:12:21;39397.78;;;-145.63;58.57
33422;BME280;19763;55.798;37.782;2023-12-20T06:14:47;39423.22;;;-145.63;58.20
33422;BME280;19763;55.798;37.782;2023-12-20T06:17:16;39421.25;;;-145.63;58.76
33422;BME280;19763;55.798;37.782;2023-12-20T06:19:42;39378.22;;;-145.63;58.65
33422;BME280;19763;55.798;37.782;2023-12-20T06:22:10;39415.38;;;-145.63;58.07
33422;BME280;19763;55.798;37.782;2023-12-20T06:24:36;39368.44;;;-145.63;58.05
33422;BME280;19763;55.798;37.782;2023-12-20T06:27:02;39393.88;;;-145.63;58.06
33422;BME280;19763;55.798;37.782;2023-12-20T06:29:28;39393.88;;;-145.63;57.87
33422;BME280;19763;55.798;37.782;2023-12-20T06:31:53;39411.47;;;-145.63;57.81
33422;BME280;19763;55.798;37.782;2023-12-20T06:34:19;39434.94;;;-145.63;57.98
33422;BME280;19763;55.798;37.782;2023-12-20T06:36:45;39415.38;;;-145.63;58.05
33422;BME280;19763;55.798;37.782;2023-12-20T06:39:10;39388.00;;;-145.63;58.44
33422;BME280;19763;55.798;37.782;2023-12-20T06:41:38;39388.00;;;-145.63;57.99
33422;BME280;19763;55.798;37.782;2023-12-20T06:44:04;39378.22;;;-145.63;58.09
33422;BME280;19763;55.798;37.782;2023-12-20T06:46:30;39466.25;;;-145.63;58.26
33422;BME280;19763;55.798;37.782;2023-12-20T06:48:55;39374.31;;;-145.63;58.05
33422;BME280;19763;55.798;37.782;2023-12-20T06:51:21;39188.53;;;-145.63;57.63
33422;BME280;19763;55.798;37.782;2023-12-20T06:53:51;39403.66;;;-145.63;57.85
33422;BME280;19763;55.798;37.782;2023-12-20T06:56:17;39419.31;;;-145.63;57.68
33422;BME280;19763;55.798;37.782;2023-12-20T06:58:43;39346.94;;;-145.63;57.79
33422;BME280;19763;55.798;37.782;2023-12-20T07:01:15;39384.09;;;-145.63;58.01
33422;BME280;19763;55.798;37.782;2023-12-20T07:03:42;39403.66;;;-145.63;57.45
33422;BME280;19763;55.798;37.782;2023-12-20T07:06:08;39425.16;;;-145.63;57.68
33422;BME280;19763;55.798;37.782;2023-12-20T07:08:34;39399.75;;;-145.63;57.43
33422;BME280;19763;55.798;37.782;2023-12-20T07:11:00;39384.09;;;-145.63;57.42
33422;BME280;19763;55.798;37.782;2023-12-20T07:13:26;39260.88;;;-145.63;57.38
33422;BME280;19763;55.798;37.782;2023-12-20T07:15:51;39380.19;;;-145.63;57.30
33422;BME280;19763;55.798;37.782;2023-12-20T07:18:17;39419.31;;;-145.63;57.32
33422;BME280;19763;55.798;37.782;2023-12-20T07:20:43;39391.91;;;-145.63;56.81
33422;BME280;19763;55.798;37.782;2023-12-20T07:23:09;39397.78;;;-145.63;56.66
33422;BME280;19763;55.798;37.782;2023-12-20T07:25:34;39405.59;;;-145.63;56.63
33422;BME280;19763;55.798;37.782;2023-12-20T07:28:00;39415.38;;;-145.63;56.00
33422;BME280;19763;55.798;37.782;2023-12-20T07:30:26;39413.44;;;-145.63;56.51
33422;BME280;19763;55.798;37.782;2023-12-20T07:32:52;39446.69;;;-145.63;56.73
33422;BME280;19763;55.798;37.782;2023-12-20T07:35:18;39399.75;;;-145.63;56.90
33422;BME280;19763;55.798;37.782;2023-12-20T07:37:44;39413.44;;;-145.63;57.54
33422;BME280;19763;55.798;37.782;2023-12-20T07:40:10;39395.84;;;-145.63;57.09
33422;BME280;19763;55.798;37.782;2023-12-20T07:42:36;39427.13;;;-145.63;57.25
33422;BME280;19763;55.798;37.782;2023-12-20T07:45:02;39403.66;;;-145.63;57.10
33422;BME280;19763;55.798;37.782;2023-12-20T07:47:30;39376.28;;;-145.63;57.23
33422;BME280;19763;55.798;37.782;2023-12-20T07:49:56;39397.78;;;-145.63;57.30
33422;BME280;19763;55.798;37.782;2023-12-20T07:52:23;39403.66;;;-145.63;57.03
33422;BME280;19763;55.798;37.782;2023-12-20T07:54:48;39409.53;;;-145.63;56.90
33422;BME280;19763;55.798;37.782;2023-12-20T07:57:14;39362.59;;;-145.63;57.03
33422;BME280;19763;55.798;37.782;2023-12-20T07:59:40;39395.84;;;-145.63;57.11
33422;BME280;19763;55.798;37.782;2023-12-20T08:02:06;39433.00;;;-145.63;56.66
33422;BME280;19763;55.798;37.782;2023-12-20T08:04:32;39417.34;;;-145.63;57.21
33422;BME280;19763;55.798;37.782;2023-12-20T08:06:58;39386.06;;;-145.63;56.57
33422;BME280;19763;55.798;37.782;2023-12-20T08:09:24;39388.00;;;-145.63;56.70
33422;BME280;19763;55.798;37.782;2023-12-20T08:11:49;39393.88;;;-145.63;55.96
33422;BME280;19763;55.798;37.782;2023-12-20T08:14:15;39380.19;;;-145.63;55.93
33422;BME280;19763;55.798;37.782;2023-12-20T08:16:41;39362.59;;;-145.63;56.09
33422;BME280;19763;55.798;37.782;2023-12-20T08:19:07;39360.63;;;-145.63;55.60
33422;BME280;19763;55.798;37.782;2023-12-20T08:21:33;39376.28;;;-145.63;55.60
33422;BME280;19763;55.798;37.782;2023-12-20T08:23:59;39362.59;;;-145.63;55.61
33422;BME280;19763;55.798;37.782;2023-12-20T08:26:26;39374.31;;;-145.63;55.55
33422;BME280;19763;55.798;37.782;2023-12-20T08:28:52;39411.47;;;-145.63;55.49
33422;BME280;19763;55.798;37.782;2023-12-20T08:31:18;39370.41;;;-145.63;55.50
33422;BME280;19763;55.798;37.782;2023-12-20T08:33:45;39368.44;;;-145.63;56.20
33422;BME280;19763;55.798;37.782;2023-12-20T08:36:11;39378.22;;;-145.63;55.98
33422;BME280;19763;55.798;37.782;2023-12-20T08:38:37;39393.88;;;-145.63;56.24
33422;BME280;19763;55.798;37.782;2023-12-20T08:41:03;39380.19;;;-145.63;56.09
33422;BME280;19763;55.798;37.782;2023-12-20T08:43:36;39380.19;;;-145.63;56.31
33422;BME280;19763;55.798;37.782;2023-12-20T08:46:02;39372.34;;;-145.63;55.94
33422;BME280;19763;55.798;37.782;2023-12-20T08:48:28;39339.13;;;-145.63;55.45
33422;BME280;19763;55.798;37.782;2023-12-20T08:50:54;39399.75;;;-145.63;55.72
33422;BME280;19763;55.798;37.782;2023-12-20T08:53:20;39364.53;;;-145.63;55.78
33422;BME280;19763;55.798;37.782;2023-12-20T08:55:46;39384.09;;;-145.63;55.75
33422;BME280;19763;55.798;37.782;2023-12-20T08:58:12;39350.84;;;-145.63;55.74
33422;BME280;19763;55.798;37.782;2023-12-20T09:00:38;39403.66;;;-145.63;56.03
33422;BME280;19763;55.798;37.782;2023-12-20T09:03:04;39397.78;;;-145.63;55.96
33422;BME280;19763;55.798;37.782;2023-12-20T09:05:31;39417.34;;;-145.63;56.68
33422;BME280;19763;55.798;37.782;2023-12-20T09:07:57;39388.00;;;-145.63;56.76
33422;BME280;19763;55.798;37.782;2023-12-20T09:10:22;39419.31;;;-145.63;57.10
33422;BME280;19763;55.798;37.782;2023-12-20T09:12:52;39415.38;;;-145.63;57.15
33422;BME280;19763;55.798;37.782;2023-12-20T09:15:26;39403.66;;;-145.63;57.43
33422;BME280;19763;55.798;37.782;2023-12-20T09:17:53;39427.13;;;-145.63;57.29
33422;BME280;19763;55.798;37.782;2023-12-20T09:20:19;39411.47;;;-145.63;57.38
33422;BME280;19763;55.798;37.782;2023-12-20T09:22:45;39427.13;;;-145.63;57.42
33422;BME280;19763;55.798;37.782;2023-12-20T09:25:11;39405.59;;;-145.63;57.21
33422;BME280;19763;55.798;37.782;2023-12-20T09:27:38;39419.31;;;-145.63;57.43
33422;BME280;19763;55.798;37.782;2023-12-20T09:30:04;39417.34;;;-145.63;57.53
33422;BME280;19763;55.798;37.782;2023-12-20T09:32:33;39409.53;;;-145.63;57.91
33422;BME280;19763;55.798;37.782;2023-12-20T09:34:59;39399.75;;;-145.63;57.72
33422;BME280;19763;55.798;37.782;2023-12-20T09:37:26;39427.13;;;-145.63;58.28
33422;BME280;19763;55.798;37.782;2023-12-20T09:39:53;39405.59;;;-145.63;58.08
33422;BME280;19763;55.798;37.782;2023-12-20T09:42:25;39403.66;;;-145.63;58.46
33422;BME280;19763;55.798;37.782;2023-12-20T09:44:55;39395.84;;;-145.63;58.52
33422;BME280;19763;55.798;37.782;2023-12-20T09:47:23;39407.56;;;-145.63;58.16
33422;BME280;19763;55.798;37.782;2023-12-20T09:49:50;39405.59;;;-145.63;58.13
33422;BME280;19763;55.798;37.782;2023-12-20T09:52:18;39470.16;;;-145.63;58.32
33422;BME280;19763;55.798;37.782;2023-12-20T09:54:45;39397.78;;;-145.63;58.53
33422;BME280;19763;55.798;37.782;2023-12-20T09:57:13;39415.38;;;-145.63;58.22
33422;BME280;19763;55.798;37.782;2023-12-20T09:59:38;39421.25;;;-145.63;58.23
33422;BME280;19763;55.798;37.782;2023-12-20T10:02:11;39429.06;;;-145.63;58.35
33422;BME280;19763;55.798;37.782;2023-12-20T10:04:41;39442.78;;;-145.63;58.18
33422;BME280;19763;55.798;37.782;2023-12-20T10:07:11;39419.31;;;-145.63;58.31
33422;BME280;19763;55.798;37.782;2023-12-20T10:09:37;39438.84;;;-145.63;58.40
33422;BME280;19763;55.798;37.782;2023-12-20T10:12:03;39403.66;;;-145.63;59.15
33422;BME280;19763;55.798;37.782;2023-12-20T10:14:31;39415.38;;;-145.63;58.85
33422;BME280;19763;55.798;37.782;2023-12-20T10:17:02;39397.78;;;-145.63;59.12
33422;BME280;19763;55.798;37.782;2023-12-20T10:19:29;39425.16;;;-145.63;59.09
33422;BME280;19763;55.798;37.782;2023-12-20T10:21:54;39415.38;;;-145.63;59.17
33422;BME280;19763;55.798;37.782;2023-12-20T10:24:20;39399.75;;;-145.63;59.24
33422;BME280;19763;55.798;37.782;2023-12-20T10:26:46;39401.69;;;-145.63;59.46
33422;BME280;19763;55.798;37.782;2023-12-20T10:29:12;39407.56;;;-145.63;59.22
33422;BME280;19763;55.798;37.782;2023-12-20T10:31:37;39397.78;;;-145.63;59.43
33422;BME280;19763;55.798;37.782;2023-12-20T10:34:07;39419.31;;;-145.63;58.88
33422;BME280;19763;55.798;37.782;2023-12-20T10:36:33;39417.34;;;-145.63;58.97
33422;BME280;19763;55.798;37.782;2023-12-20T10:38:59;39425.16;;;-145.63;59.15
33422;BME280;19763;55.798;37.782;2023-12-20T10:41:31;39395.84;;;-145.63;59.25
33422;BME280;19763;55.798;37.782;2023-12-20T10:44:04;39458.41;;;-145.63;58.82
33422;BME280;19763;55.798;37.782;2023-12-20T10:46:34;39415.38;;;-145.63;58.84
33422;BME280;19763;55.798;37.782;2023-12-20T10:49:05;39423.22;;;-145.63;58.55
33422;BME280;19763;55.798;37.782;2023-12-20T10:51:31;39399.75;;;-145.63;58.88
33422;BME280;19763;55.798;37.782;2023-12-20T10:53:57;39419.31;;;-145.63;58.34
33422;BME280;19763;55.798;37.782;2023-12-20T10:56:23;39450.59;;;-145.63;58.57
33422;BME280;19763;55.798;37.782;2023-12-20T10:58:50;39429.06;;;-145.63;58.80
33422;BME280;19763;55.798;37.782;2023-12-20T11:01:17;39425.16;;;-145.63;58.73
33422;BME280;19763;55.798;37.782;2023-12-20T11:03:52;39464.28;;;-145.63;58.49
33422;BME280;19763;55.798;37.782;2023-12-20T11:06:21;39407.56;;;-145.63;58.45
33422;BME280;19763;55.798;37.782;2023-12-20T11:09:00;39413.44;;;-145.63;58.67
33422;BME280;19763;55.798;37.782;2023-12-20T11:14:08;39444.72;;;-145.63;58.17
33422;BME280;19763;55.798;37.782;2023-12-20T11:16:37;39425.16;;;-145.63;58.15
33422;BME280;19763;55.798;37.782;2023-12-20T11:19:07;39413.44;;;-145.63;58.12
33422;BME280;19763;55.798;37.782;2023-12-20T11:21:32;39403.66;;;-145.63;58.20
33422;BME280;19763;55.798;37.782;2023-12-20T11:23:59;39442.78;;;-145.63;57.74
33422;BME280;19763;55.798;37.782;2023-12-20T11:26:29;39386.06;;;-145.63;57.92
33422;BME280;19763;55.798;37.782;2023-12-20T11:29:30;39429.06;;;-145.63;57.84
33422;BME280;19763;55.798;37.782;2023-12-20T11:32:27;39401.69;;;-145.63;57.83
33422;BME280;19763;55.798;37.782;2023-12-20T11:35:01;38830.66;;;-145.63;57.34
33422;BME280;19763;55.798;37.782;2023-12-20T11:37:31;39384.09;;;-145.63;57.81
33422;BME280;19763;55.798;37.782;2023-12-20T11:40:02;39434.94;;;-145.63;57.22
33422;BME280;19763;55.798;37.782;2023-12-20T11:42:33;39425.16;;;-145.63;57.03
33422;BME280;19763;55.798;37.782;2023-12-20T11:45:03;39425.16;;;-145.63;56.85
33422;BME280;19763;55.798;37.782;2023-12-20T11:47:31;39434.94;;;-145.63;57.02
33422;BME280;19763;55.798;37.782;2023-12-20T11:49:57;39419.31;;;-145.63;57.13
33422;BME280;19763;55.798;37.782;2023-12-20T11:52:23;39417.34;;;-145.63;57.18
33422;BME280;19763;55.798;37.782;2023-12-20T11:54:48;39427.13;;;-145.63;57.20
33422;BME280;19763;55.798;37.782;2023-12-20T11:57:14;39395.84;;;-145.63;57.23
33422;BME280;19763;55.798;37.782;2023-12-20T11:59:39;39431.03;;;-145.63;57.23
33422;BME280;19763;55.798;37.782;2023-12-20T12:02:05;39442.78;;;-145.63;57.47
33422;BME280;19763;55.798;37.782;2023-12-20T12:04:31;39438.84;;;-145.63;57.55
33422;BME280;19763;55.798;37.782;2023-12-20T12:06:57;39421.25;;;-145.63;57.36
33422;BME280;19763;55.798;37.782;2023-12-20T12:09:23;39440.81;;;-145.63;58.20
33422;BME280;19763;55.798;37.782;2023-12-20T12:11:49;39391.91;;;-145.63;57.99
33422;BME280;19763;55.798;37.782;2023-12-20T12:14:15;39423.22;;;-145.63;58.09
33422;BME280;19763;55.798;37.782;2023-12-20T12:16:42;39454.50;;;-145.63;58.26
33422;BME280;19763;55.798;37.782;2023-12-20T12:19:20;39438.84;;;-145.63;58.63
33422;BME280;19763;55.798;37.782;2023-12-20T12:21:46;39419.31;;;-145.63;58.82
33422;BME280;19763;55.798;37.782;2023-12-20T12:24:12;39415.38;;;-145.63;58.32
33422;BME280;19763;55.798;37.782;2023-12-20T12:26:38;39405.59;;;-145.63;58.42
33422;BME280;19763;55.798;37.782;2023-12-20T12:29:03;39417.34;;;-145.63;58.25
33422;BME280;19763;55.798;37.782;2023-12-20T12:31:32;39442.78;;;-145.63;58.38